Time;durP1;ratioP1;P1;durP2;ratioP2;P2;SDS_P1;SDS_P2;PMS_P1;PMS_P2;Temp;Humidity;BMP_temperature;BMP_pressure;BME280_temperature;BME280_humidity;BME280_pressure;Samples;Min_cycle;Max_cycle;Signal;HPM_P1;HPM_P2
2022/01/11 00:04:09;;;;;;;;;;;;;;;21.30;30.62;96551.56;10362509;28;1965;-73
2022/01/11 00:14:39;;;;;;;;;;;;;;;21.29;30.53;96563.94;10362483;28;1896;-74
2022/01/11 00:19:40;;;;;;;;;;;;;;;21.28;30.32;96570.28;10380196;28;1917;-74
2022/01/11 00:24:40;;;;;;;;;;;;;;;21.26;30.45;96568.94;10381352;28;1914;-74
2022/01/11 00:29:43;;;;;;;;;;;;;;;21.27;30.34;96575.81;10387154;23;3807;-56
2022/01/11 00:34:52;;;;;;;;;;;;;;;21.23;30.35;96580.00;10396284;28;1821;-56
2022/01/11 00:39:52;;;;;;;;;;;;;;;21.19;30.35;96590.25;10395772;28;1946;-55
2022/01/11 00:44:53;;;;;;;;;;;;;;;21.21;30.48;96590.00;10401670;28;1897;-53
2022/01/11 00:49:54;;;;;;;;;;;;;;;21.23;30.40;96596.63;10399902;28;1821;-54
2022/01/11 00:54:55;;;;;;;;;;;;;;;21.20;30.47;96599.78;10384059;28;1898;-55
2022/01/11 00:59:56;;;;;;;;;;;;;;;21.22;30.28;96602.94;10399851;28;1999;-53
2022/01/11 01:04:56;;;;;;;;;;;;;;;21.23;30.19;96616.91;10396220;28;1880;-57
2022/01/11 01:10:13;;;;;;;;;;;;;;;21.24;30.25;96613.22;10398758;28;1845;-58
2022/01/11 01:15:14;;;;;;;;;;;;;;;21.22;30.04;96615.34;10400132;28;1806;-58
2022/01/11 01:20:15;;;;;;;;;;;;;;;21.18;30.22;96615.06;10400173;28;1906;-58
2022/01/11 01:25:15;;;;;;;;;;;;;;;21.21;30.29;96616.38;10401551;28;1768;-57
2022/01/11 01:30:17;;;;;;;;;;;;;;;21.16;30.10;96619.81;10396830;28;1827;-58
2022/01/11 01:35:18;;;;;;;;;;;;;;;21.18;30.07;96622.16;10398313;28;1830;-59
2022/01/11 01:40:19;;;;;;;;;;;;;;;21.17;30.19;96624.00;10399780;28;1910;-57
2022/01/11 01:45:23;;;;;;;;;;;;;;;21.20;30.14;96620.06;10398984;28;1815;-59
2022/01/11 01:50:24;;;;;;;;;;;;;;;21.19;30.09;96613.19;10400782;28;1824;-57
2022/01/11 01:55:25;;;;;;;;;;;;;;;21.20;29.86;96617.44;10392330;28;1924;-59
2022/01/11 02:00:29;;;;;;;;;;;;;;;21.18;30.15;96624.81;10397019;28;1969;-58
2022/01/11 02:05:29;;;;;;;;;;;;;;;21.16;29.84;96622.44;10405742;28;1880;-57
2022/01/11 02:10:29;;;;;;;;;;;;;;;21.22;29.98;96628.50;10397542;28;1903;-58
2022/01/11 02:15:30;;;;;;;;;;;;;;;21.19;30.02;96634.28;10401755;28;1968;-58
2022/01/11 02:20:32;;;;;;;;;;;;;;;21.18;29.96;96632.72;10400416;28;1969;-57
2022/01/11 02:25:35;;;;;;;;;;;;;;;21.20;29.85;96633.25;10404667;28;1849;-58
2022/01/11 02:30:39;;;;;;;;;;;;;;;21.20;29.77;96641.16;10395476;28;1903;-57
2022/01/11 02:35:39;;;;;;;;;;;;;;;21.19;29.72;96642.19;10395191;28;1832;-59
2022/01/11 02:40:40;;;;;;;;;;;;;;;21.17;29.63;96637.19;10399610;28;1910;-58
2022/01/11 02:45:40;;;;;;;;;;;;;;;21.17;29.73;96642.47;10407797;28;1819;-57
2022/01/11 02:50:41;;;;;;;;;;;;;;;21.16;29.86;96648.00;10401938;28;1856;-58
2022/01/11 02:55:43;;;;;;;;;;;;;;;21.20;29.78;96641.16;10404967;28;1823;-54
2022/01/11 03:00:43;;;;;;;;;;;;;;;21.15;29.81;96646.41;10402011;28;1976;-57
2022/01/11 03:05:44;;;;;;;;;;;;;;;21.17;29.66;96652.22;10403737;28;1949;-58
2022/01/11 03:10:46;;;;;;;;;;;;;;;21.19;29.73;96660.66;10402776;28;1828;-56
2022/01/11 03:15:47;;;;;;;;;;;;;;;21.15;29.71;96657.75;10404733;28;1838;-57
2022/01/11 03:20:49;;;;;;;;;;;;;;;21.17;29.71;96665.38;10405439;28;1918;-57
2022/01/11 03:25:52;;;;;;;;;;;;;;;21.16;29.59;96666.44;10403886;28;1860;-58
2022/01/11 03:30:53;;;;;;;;;;;;;;;21.16;29.53;96661.19;10401171;28;1846;-58
2022/01/11 03:35:53;;;;;;;;;;;;;;;21.14;29.51;96660.66;10403402;28;1906;-58
2022/01/11 03:40:54;;;;;;;;;;;;;;;21.15;29.59;96664.84;10407456;28;2211;-58
2022/01/11 03:45:54;;;;;;;;;;;;;;;21.14;29.73;96660.66;10399538;28;2167;-57
2022/01/11 03:50:56;;;;;;;;;;;;;;;21.13;29.68;96666.94;10396733;28;2295;-55
2022/01/11 04:00:57;;;;;;;;;;;;;;;21.14;29.46;96673.81;10400253;28;1849;-56
2022/01/11 04:05:58;;;;;;;;;;;;;;;21.11;29.56;96667.22;10403441;28;1855;-54
2022/01/11 04:10:58;;;;;;;;;;;;;;;21.11;29.63;96669.03;10399138;28;2232;-58
2022/01/11 04:15:58;;;;;;;;;;;;;;;21.15;29.42;96670.94;10403105;28;1922;-57
2022/01/11 04:20:59;;;;;;;;;;;;;;;21.15;29.44;96667.50;10402447;28;1838;-54
2022/01/11 04:25:59;;;;;;;;;;;;;;;21.12;29.45;96671.44;10402042;28;1712;-57
2022/01/11 04:31:00;;;;;;;;;;;;;;;21.10;29.39;96670.09;10399813;28;1911;-55
2022/01/11 04:36:01;;;;;;;;;;;;;;;21.12;29.58;96668.00;10403310;28;2009;-58
2022/01/11 04:41:01;;;;;;;;;;;;;;;21.12;29.33;96675.94;10403518;28;1774;-57
2022/01/11 04:46:01;;;;;;;;;;;;;;;21.11;29.30;96676.97;10398966;28;1898;-55
2022/01/11 04:51:02;;;;;;;;;;;;;;;21.10;29.45;96688.56;10401314;28;1982;-59
2022/01/11 04:56:03;;;;;;;;;;;;;;;21.10;29.32;96688.56;10398757;28;1906;-58
2022/01/11 05:01:04;;;;;;;;;;;;;;;21.08;29.61;96695.94;10395318;28;1821;-58
2022/01/11 05:06:04;;;;;;;;;;;;;;;21.06;29.50;96691.69;10400249;28;2130;-56
2022/01/11 05:11:05;;;;;;;;;;;;;;;21.06;29.42;96696.19;10399370;28;1845;-56
2022/01/11 05:16:05;;;;;;;;;;;;;;;21.10;29.29;96701.75;10381173;28;1918;-56
2022/01/11 05:21:06;;;;;;;;;;;;;;;21.06;29.49;96707.50;10401062;28;1760;-57
2022/01/11 05:26:06;;;;;;;;;;;;;;;21.06;29.51;96709.38;10399148;28;1959;-58
2022/01/11 05:31:06;;;;;;;;;;;;;;;21.04;29.31;96709.59;10397146;28;1835;-59
2022/01/11 05:36:07;;;;;;;;;;;;;;;21.08;29.31;96709.91;10399926;28;1973;-57
2022/01/11 05:41:08;;;;;;;;;;;;;;;21.04;29.44;96719.38;10399531;28;1849;-57
2022/01/11 05:46:08;;;;;;;;;;;;;;;21.08;29.36;96724.94;10392883;28;1849;-55
2022/01/11 05:51:08;;;;;;;;;;;;;;;21.02;29.56;96732.78;10399390;28;1878;-56
2022/01/11 05:56:09;;;;;;;;;;;;;;;21.00;29.27;96739.31;10390588;28;1971;-57
2022/01/11 06:01:09;;;;;;;;;;;;;;;21.00;29.58;96741.97;10377616;28;1865;-57
2022/01/11 06:06:10;;;;;;;;;;;;;;;21.01;29.48;96749.63;10396480;28;1814;-57
2022/01/11 06:11:11;;;;;;;;;;;;;;;21.00;29.37;96748.03;10397177;28;1918;-53
2022/01/11 06:16:11;;;;;;;;;;;;;;;21.00;29.18;96758.56;10395994;28;1910;-56
2022/01/11 06:21:12;;;;;;;;;;;;;;;20.99;29.41;96764.91;10401447;28;1851;-57
2022/01/11 06:26:15;;;;;;;;;;;;;;;21.01;29.35;96756.75;10396393;28;1799;-57
2022/01/11 06:31:16;;;;;;;;;;;;;;;21.00;29.34;96771.75;10397790;28;1941;-56
2022/01/11 06:36:18;;;;;;;;;;;;;;;21.06;29.42;96776.06;10398651;28;1973;-57
2022/01/11 06:41:18;;;;;;;;;;;;;;;21.02;29.62;96780.25;10397500;28;1751;-54
2022/01/11 06:46:20;;;;;;;;;;;;;;;21.02;29.36;96769.69;10401552;28;1868;-57
2022/01/11 06:51:21;;;;;;;;;;;;;;;21.01;29.72;96783.91;10406199;28;1801;-56
2022/01/11 06:56:22;;;;;;;;;;;;;;;21.01;29.51;96789.19;10410436;28;1969;-56
2022/01/11 07:01:22;;;;;;;;;;;;;;;21.04;29.47;96801.09;10407334;28;2030;-54
2022/01/11 07:06:23;;;;;;;;;;;;;;;21.03;29.48;96808.22;10405319;28;1847;-56
2022/01/11 07:11:24;;;;;;;;;;;;;;;21.02;29.51;96811.88;10406898;28;2000;-56
2022/01/11 07:16:24;;;;;;;;;;;;;;;21.04;29.49;96822.19;10403670;28;1904;-54
2022/01/11 07:21:25;;;;;;;;;;;;;;;21.03;29.61;96817.94;10405562;28;2010;-55
2022/01/11 07:26:25;;;;;;;;;;;;;;;21.02;29.48;96827.69;10403238;28;1830;-58
2022/01/11 07:31:25;;;;;;;;;;;;;;;20.97;29.52;96830.25;10402031;28;2199;-58
2022/01/11 07:36:26;;;;;;;;;;;;;;;20.97;29.65;96835.53;10404060;28;1918;-56
2022/01/11 07:41:26;;;;;;;;;;;;;;;20.98;29.60;96834.47;10404671;28;2147;-56
2022/01/11 07:46:26;;;;;;;;;;;;;;;21.00;29.72;96839.50;10403286;28;1987;-56
2022/01/11 07:51:27;;;;;;;;;;;;;;;21.00;29.74;96839.50;10402132;28;1851;-57
2022/01/11 07:56:27;;;;;;;;;;;;;;;20.97;29.92;96834.72;10396940;28;1981;-55
2022/01/11 08:01:28;;;;;;;;;;;;;;;20.99;30.13;96844.00;10404969;28;1880;-56
2022/01/11 08:06:28;;;;;;;;;;;;;;;20.99;30.28;96848.47;10402426;28;2234;-57
2022/01/11 08:11:29;;;;;;;;;;;;;;;21.00;30.35;96847.41;10406461;28;1836;-57
2022/01/11 08:16:29;;;;;;;;;;;;;;;20.97;30.51;96855.81;10402075;28;2105;-56
2022/01/11 08:21:29;;;;;;;;;;;;;;;20.99;30.28;96843.19;10404124;28;2005;-55
2022/01/11 08:26:30;;;;;;;;;;;;;;;21.00;30.33;96845.56;10404179;28;2068;-57
2022/01/11 08:31:30;;;;;;;;;;;;;;;21.02;30.35;96843.50;10405209;28;1769;-57
2022/01/11 08:36:31;;;;;;;;;;;;;;;21.02;30.53;96843.50;10405119;28;1910;-53
2022/01/11 08:41:31;;;;;;;;;;;;;;;20.99;30.33;96844.00;10404093;28;1974;-54
2022/01/11 08:46:31;;;;;;;;;;;;;;;21.01;30.42;96857.72;10400241;28;1891;-57
2022/01/11 08:51:32;;;;;;;;;;;;;;;21.02;30.27;96864.59;10400656;28;1875;-54
2022/01/11 08:56:32;;;;;;;;;;;;;;;21.03;30.34;96882.03;10404235;28;2033;-57
2022/01/11 09:01:36;;;;;;;;;;;;;;;21.07;30.19;96890.22;10403152;28;1824;-57
2022/01/11 09:06:36;;;;;;;;;;;;;;;21.03;30.39;96892.56;10400934;28;1851;-54
2022/01/11 09:11:37;;;;;;;;;;;;;;;21.01;30.50;96889.34;10403254;28;1860;-57
2022/01/11 09:16:37;;;;;;;;;;;;;;;21.03;30.39;96902.31;10401169;28;1912;-58
2022/01/11 09:21:38;;;;;;;;;;;;;;;21.03;30.49;96899.66;10398761;28;1798;-56
2022/01/11 09:26:41;;;;;;;;;;;;;;;21.04;30.60;96903.91;10404624;28;1889;-58
2022/01/11 09:31:42;;;;;;;;;;;;;;;21.03;30.36;96908.38;10400992;28;1824;-57
2022/01/11 09:36:42;;;;;;;;;;;;;;;21.02;30.22;96916.50;10402372;28;1906;-57
2022/01/11 09:41:42;;;;;;;;;;;;;;;21.03;30.25;96913.66;10406098;28;1828;-57
2022/01/11 09:46:43;;;;;;;;;;;;;;;21.03;30.38;96910.22;10401670;28;1915;-56
2022/01/11 09:51:44;;;;;;;;;;;;;;;21.03;30.26;96910.22;10399365;28;1940;-58
2022/01/11 09:56:44;;;;;;;;;;;;;;;21.01;30.56;96899.91;10397237;28;1969;-57
2022/01/11 10:01:44;;;;;;;;;;;;;;;21.02;30.50;96900.69;10393685;28;1768;-54
2022/01/11 10:06:51;;;;;;;;;;;;;;;21.01;30.26;96905.16;10402643;23;1902;-70
2022/01/11 10:11:54;;;;;;;;;;;;;;;21.01;30.40;96901.72;10393407;28;1827;-71
2022/01/11 10:17:10;;;;;;;;;;;;;;;21.01;30.15;96897.25;10359085;28;1971;-71
2022/01/11 10:22:12;;;;;;;;;;;;;;;21.01;30.05;96889.34;10375734;28;1611;-69
2022/01/11 10:27:14;;;;;;;;;;;;;;;21.00;30.28;96887.75;10387899;28;1827;-70
2022/01/11 10:32:14;;;;;;;;;;;;;;;20.98;30.17;96881.91;10374688;28;2053;-70
2022/01/11 10:37:16;;;;;;;;;;;;;;;20.99;30.40;96886.16;10389793;28;1924;-70
2022/01/11 10:42:23;;;;;;;;;;;;;;;21.00;30.27;96887.75;10383085;28;2295;-70
2022/01/11 10:47:31;;;;;;;;;;;;;;;21.02;30.28;96890.16;10367562;28;1882;-71
2022/01/11 10:52:32;;;;;;;;;;;;;;;21.01;30.26;96884.06;10350674;28;1904;-70
2022/01/11 10:57:33;;;;;;;;;;;;;;;21.00;30.35;96895.66;10388185;28;1902;-70
2022/01/11 11:02:34;;;;;;;;;;;;;;;21.00;30.36;96889.56;10372010;28;1834;-71
2022/01/11 11:07:35;;;;;;;;;;;;;;;21.03;30.28;96900.47;10384913;28;1907;-71
2022/01/11 11:12:36;;;;;;;;;;;;;;;21.03;30.47;96899.66;10354407;28;2168;-70
2022/01/11 11:17:37;;;;;;;;;;;;;;;21.02;30.16;96905.97;10361099;28;1910;-71
2022/01/11 11:22:37;;;;;;;;;;;;;;;21.02;30.07;96905.97;10358558;28;1780;-71
2022/01/11 11:27:38;;;;;;;;;;;;;;;20.99;30.06;96909.09;10371561;28;1926;-71
2022/01/11 11:32:38;;;;;;;;;;;;;;;20.98;30.10;96905.66;10344025;28;1891;-71
2022/01/11 11:37:38;;;;;;;;;;;;;;;21.02;30.33;96905.97;10370685;28;1969;-71
2022/01/11 11:42:39;;;;;;;;;;;;;;;21.02;30.32;96903.34;10363168;28;1792;-70
2022/01/11 11:47:39;;;;;;;;;;;;;;;21.05;30.23;96916.84;10370177;28;1882;-71
2022/01/11 11:52:42;;;;;;;;;;;;;;;21.04;30.17;96920.50;10382101;28;1866;-71
2022/01/11 11:57:44;;;;;;;;;;;;;;;21.00;30.17;96914.09;10383122;28;2313;-71
2022/01/11 12:02:48;;;;;;;;;;;;;;;21.05;30.12;96908.94;10366901;28;1912;-71
2022/01/11 12:07:49;;;;;;;;;;;;;;;21.05;30.34;96898.38;10380574;28;1788;-71
2022/01/11 12:12:53;;;;;;;;;;;;;;;21.04;30.19;96904.69;10367271;28;1784;-70
2022/01/11 12:17:59;;;;;;;;;;;;;;;21.03;30.45;96897.84;10364240;28;1922;-71
2022/01/11 12:23:00;;;;;;;;;;;;;;;21.02;30.58;96906.78;10368779;28;1770;-70
2022/01/11 12:28:01;;;;;;;;;;;;;;;21.01;30.29;96910.44;10379617;28;1784;-71
2022/01/11 12:33:10;;;;;;;;;;;;;;;21.03;30.35;96907.56;10418021;22;2065;-43
2022/01/11 12:38:11;;;;;;;;;;;;;;;21.02;30.26;96917.31;10427005;28;2013;-45
2022/01/11 12:43:17;;;;;;;;;;;;;;;20.99;30.35;96915.16;10437695;28;1756;-44
2022/01/11 12:48:36;;;;;;;;;;;;;;;20.99;30.34;96915.16;10433625;28;1829;-43
2022/01/11 12:53:37;;;;;;;;;;;;;;;20.99;30.13;96911.72;10435015;28;1956;-45
2022/01/11 12:58:37;;;;;;;;;;;;;;;20.97;30.36;96914.63;10431333;28;1958;-43
2022/01/11 13:04:07;;;;;;;;;;;;;;;20.98;30.22;96907.47;10420666;28;1836;-44
2022/01/11 13:09:08;;;;;;;;;;;;;;;20.98;30.19;96916.19;10421526;28;1832;-45
2022/01/11 13:14:30;;;;;;;;;;;;;;;20.96;30.21;96904.28;10427053;28;1849;-43
2022/01/11 13:19:31;;;;;;;;;;;;;;;20.93;30.17;96899.53;10435967;28;1927;-45
2022/01/11 13:24:38;;;;;;;;;;;;;;;20.95;30.00;96900.88;10425950;28;1829;-45
2022/01/11 13:29:38;;;;;;;;;;;;;;;20.95;30.13;96897.44;10426685;28;1864;-47
2022/01/11 13:34:39;;;;;;;;;;;;;;;20.93;30.01;96895.06;10439677;28;1832;-45
2022/01/11 13:39:41;;;;;;;;;;;;;;;20.93;29.82;96897.72;10425443;28;1965;-45
2022/01/11 13:44:43;;;;;;;;;;;;;;;20.93;30.04;96892.44;10437406;28;1896;-45
2022/01/11 13:49:44;;;;;;;;;;;;;;;20.91;29.83;96893.72;10429876;28;1896;-46
2022/01/11 13:54:48;;;;;;;;;;;;;;;20.93;29.87;96897.72;10435771;28;2470;-45
2022/01/11 13:59:55;;;;;;;;;;;;;;;20.92;29.81;96908.47;10427477;28;1967;-45
2022/01/11 14:05:00;;;;;;;;;;;;;;;20.94;30.07;96899.28;10434387;28;1914;-46
2022/01/11 14:10:04;;;;;;;;;;;;;;;20.91;30.06;96899.78;10435704;28;1898;-45
2022/01/11 14:15:08;;;;;;;;;;;;;;;20.89;30.04;96896.59;10451392;28;1916;-45
2022/01/11 14:20:09;;;;;;;;;;;;;;;20.87;30.10;96893.44;10434598;28;2040;-46
2022/01/11 14:25:20;;;;;;;;;;;;;;;20.89;29.72;96901.06;10436476;28;2155;-44
2022/01/11 14:30:21;;;;;;;;;;;;;;;20.89;29.89;96895.81;10438402;28;1913;-43
2022/01/11 14:35:22;;;;;;;;;;;;;;;20.88;29.84;96895.00;10434130;28;2218;-45
2022/01/11 14:40:23;;;;;;;;;;;;;;;20.86;29.87;96901.56;10438044;28;1973;-43
2022/01/11 14:45:24;;;;;;;;;;;;;;;20.88;29.88;96904.75;10440105;28;1987;-47
2022/01/11 14:50:25;;;;;;;;;;;;;;;20.91;29.87;96909.53;10437110;28;1827;-42
2022/01/11 14:55:44;;;;;;;;;;;;;;;20.87;30.08;96919.78;10437118;28;1903;-48
2022/01/11 15:00:49;;;;;;;;;;;;;;;20.87;29.89;96926.88;10432276;28;1914;-46
2022/01/11 15:05:50;;;;;;;;;;;;;;;20.87;29.79;96919.78;10435380;28;1975;-46
2022/01/11 15:10:50;;;;;;;;;;;;;;;20.84;29.94;96928.16;10440789;28;1907;-47
2022/01/11 15:15:50;;;;;;;;;;;;;;;20.86;29.72;96938.44;10445304;28;1906;-45
2022/01/11 15:20:51;;;;;;;;;;;;;;;20.90;29.89;96929.81;10435232;28;1945;-48
2022/01/11 15:25:51;;;;;;;;;;;;;;;20.90;29.92;96940.34;10433686;28;1881;-46
2022/01/11 15:30:52;;;;;;;;;;;;;;;20.91;29.74;96949.88;10439291;28;1875;-46
2022/01/11 15:35:52;;;;;;;;;;;;;;;20.90;30.03;96948.25;10431036;28;1771;-45
2022/01/11 15:40:59;;;;;;;;;;;;;;;20.91;29.82;96951.69;10440335;28;1955;-45
2022/01/11 15:45:59;;;;;;;;;;;;;;;20.90;29.74;96958.81;10444176;28;1837;-45
2022/01/11 15:51:00;;;;;;;;;;;;;;;20.90;29.89;96961.44;10442983;28;1983;-45
2022/01/11 15:56:00;;;;;;;;;;;;;;;20.88;29.88;96966.16;10440840;28;1963;-45
2022/01/11 16:01:01;;;;;;;;;;;;;;;20.88;29.92;96976.72;10441964;28;1910;-45
2022/01/11 16:06:01;;;;;;;;;;;;;;;20.90;29.73;96982.53;10442434;28;1811;-47
2022/01/11 16:11:02;;;;;;;;;;;;;;;20.86;29.83;96983.25;10442309;28;1766;-47
2022/01/11 16:16:03;;;;;;;;;;;;;;;20.87;29.64;96985.66;10439342;28;1800;-45
2022/01/11 16:21:03;;;;;;;;;;;;;;;20.86;29.85;96986.69;10437668;28;1914;-42
2022/01/11 16:26:04;;;;;;;;;;;;;;;20.87;29.85;96992.78;10439958;28;1768;-43
2022/01/11 16:31:04;;;;;;;;;;;;;;;20.87;29.64;96992.78;10449266;22;3580;-55
2022/01/11 16:36:05;;;;;;;;;;;;;;;20.87;29.84;96998.03;10448652;28;1838;-54
2022/01/11 16:46:10;;;;;;;;;;;;;;;20.87;30.12;97004.13;10442881;28;2237;-56
2022/01/11 16:51:10;;;;;;;;;;;;;;;20.88;29.88;97015.44;10428654;28;1901;-56
2022/01/11 16:56:11;;;;;;;;;;;;;;;20.86;30.05;97017.53;10432214;28;1855;-54
2022/01/11 17:01:11;;;;;;;;;;;;;;;20.86;29.96;97018.31;10410217;28;1976;-56
2022/01/11 17:06:13;;;;;;;;;;;;;;;20.89;30.11;97017.84;10435592;28;1782;-55
2022/01/11 17:11:14;;;;;;;;;;;;;;;20.85;29.86;97005.41;10431666;28;1854;-56
2022/01/11 17:16:15;;;;;;;;;;;;;;;20.87;30.05;97001.47;10435479;28;1782;-58
2022/01/11 17:21:16;;;;;;;;;;;;;;;20.85;30.08;97006.19;10455062;28;1910;-57
2022/01/11 17:26:16;;;;;;;;;;;;;;;20.88;29.82;97005.69;10437231;28;1750;-55
2022/01/11 17:31:17;;;;;;;;;;;;;;;20.86;29.94;97007.78;10446287;28;1821;-57
2022/01/11 17:36:19;;;;;;;;;;;;;;;20.90;29.64;97008.88;10438318;28;2188;-57
2022/01/11 17:41:19;;;;;;;;;;;;;;;20.86;29.82;97022.78;10435686;28;2037;-55
2022/01/11 17:46:20;;;;;;;;;;;;;;;20.86;29.87;97023.59;10434969;28;1850;-57
2022/01/11 17:51:20;;;;;;;;;;;;;;;20.86;29.82;97033.34;10435450;28;1820;-55
2022/01/11 17:56:21;;;;;;;;;;;;;;;20.83;29.86;97032.00;10435123;28;1809;-57
2022/01/11 18:01:22;;;;;;;;;;;;;;;20.85;29.80;97044.94;10436796;28;1910;-58
2022/01/11 18:06:22;;;;;;;;;;;;;;;20.86;29.78;97049.16;10433553;28;1929;-58
2022/01/11 18:11:23;;;;;;;;;;;;;;;20.87;29.64;97056.03;10434229;28;1908;-57
2022/01/11 18:16:25;;;;;;;;;;;;;;;20.83;29.51;97050.44;10440494;28;2768;-58
2022/01/11 18:21:25;;;;;;;;;;;;;;;20.82;29.45;97055.94;10431820;28;2249;-57
2022/01/11 18:26:26;;;;;;;;;;;;;;;20.84;29.60;97054.66;10437257;28;1807;-57
2022/01/11 18:31:30;;;;;;;;;;;;;;;20.81;29.54;97052.50;10429146;28;1910;-56
2022/01/11 18:36:30;;;;;;;;;;;;;;;20.84;29.35;97061.78;10431329;28;2183;-56
2022/01/11 18:41:31;;;;;;;;;;;;;;;20.83;29.46;97057.56;10433636;28;2197;-57
2022/01/11 18:46:32;;;;;;;;;;;;;;;20.81;29.38;97083.34;10439616;28;2198;-56
2022/01/11 18:51:32;;;;;;;;;;;;;;;20.81;29.35;97081.50;10441307;28;1914;-55
2022/01/11 18:56:32;;;;;;;;;;;;;;;20.81;29.46;97086.75;10441319;28;1913;-56
2022/01/11 19:01:34;;;;;;;;;;;;;;;20.77;29.45;97093.56;10439428;28;1800;-54
2022/01/11 19:06:35;;;;;;;;;;;;;;;20.79;29.51;97088.06;10434875;28;1932;-57
2022/01/11 19:11:35;;;;;;;;;;;;;;;20.79;29.28;97096.75;10420487;28;1914;-56
2022/01/11 19:16:36;;;;;;;;;;;;;;;20.80;29.54;97100.19;10421703;28;2001;-54
2022/01/11 19:21:36;;;;;;;;;;;;;;;20.80;29.50;97097.56;10426016;28;1802;-55
2022/01/11 19:26:37;;;;;;;;;;;;;;;20.78;29.24;97103.06;10427472;28;1849;-55
2022/01/11 19:31:41;;;;;;;;;;;;;;;20.82;29.21;97109.47;10439298;28;1821;-55
2022/01/11 19:36:42;;;;;;;;;;;;;;;20.80;29.26;97113.38;10441603;28;1918;-56
2022/01/11 19:41:43;;;;;;;;;;;;;;;20.79;29.46;97111.78;10430280;28;1865;-54
2022/01/11 19:46:44;;;;;;;;;;;;;;;20.81;29.37;97114.97;10423884;28;1823;-57
2022/01/11 19:51:45;;;;;;;;;;;;;;;20.82;30.13;97125.28;10425175;28;1818;-56
2022/01/11 19:56:46;;;;;;;;;;;;;;;20.85;30.72;97126.63;10431941;28;2172;-57
2022/01/11 20:01:46;;;;;;;;;;;;;;;20.85;31.35;97126.63;10430163;28;2151;-56
2022/01/11 20:06:47;;;;;;;;;;;;;;;20.86;31.67;97120.31;10429488;28;1854;-57
2022/01/11 20:11:48;;;;;;;;;;;;;;;20.88;31.51;97123.50;10432155;28;1857;-57
2022/01/11 20:16:48;;;;;;;;;;;;;;;20.87;31.05;97121.91;10430538;28;2367;-57
2022/01/11 20:27:16;;;;;;;;;;;;;;;20.89;30.88;97127.75;10407290;28;1883;-55
2022/01/11 20:32:16;;;;;;;;;;;;;;;20.87;31.07;97127.19;10429881;28;1964;-58
2022/01/11 20:37:17;;;;;;;;;;;;;;;20.87;30.77;97125.34;10442396;28;1910;-53
2022/01/11 20:42:18;;;;;;;;;;;;;;;20.88;30.80;97120.84;10439060;28;1862;-54
2022/01/11 20:47:19;;;;;;;;;;;;;;;20.87;30.49;97117.44;10441282;28;1841;-57
2022/01/11 20:52:38;;;;;;;;;;;;;;;20.89;30.49;97118.00;10425548;28;1815;-54
2022/01/11 20:57:38;;;;;;;;;;;;;;;20.92;30.50;97129.88;10435233;28;1906;-56
2022/01/11 21:02:39;;;;;;;;;;;;;;;20.91;30.58;97134.38;10429848;28;1786;-55
2022/01/11 21:07:45;;;;;;;;;;;;;;;20.89;30.45;97133.81;10431204;28;1872;-55
2022/01/11 21:12:45;;;;;;;;;;;;;;;20.87;30.45;97137.72;10434789;28;1824;-55
2022/01/11 21:23:05;;;;;;;;;;;;;;;20.85;30.18;97158.25;10431311;28;1750;-56
2022/01/11 21:28:06;;;;;;;;;;;;;;;20.82;30.28;97148.19;10433676;28;2155;-55
2022/01/11 21:33:07;;;;;;;;;;;;;;;20.84;31.47;97156.66;10404658;28;2175;-58
2022/01/11 21:38:08;;;;;;;;;;;;;;;20.86;32.21;97159.84;10434784;28;1977;-57
2022/01/11 21:43:09;;;;;;;;;;;;;;;20.93;32.38;97157.84;10428643;28;1703;-58
2022/01/11 21:48:09;;;;;;;;;;;;;;;20.95;32.53;97156.56;10432121;28;1533;-59
2022/01/11 21:53:09;;;;;;;;;;;;;;;20.97;32.32;97164.22;10433954;28;1917;-57
2022/01/11 21:58:10;;;;;;;;;;;;;;;20.96;32.42;97158.16;10436282;28;1965;-56
2022/01/11 22:03:10;;;;;;;;;;;;;;;20.94;32.43;97162.88;10423382;28;1792;-60
2022/01/11 22:08:11;;;;;;;;;;;;;;;20.93;32.38;97179.75;10426145;28;1753;-56
2022/01/11 22:18:12;;;;;;;;;;;;;;;20.91;32.46;97183.66;10437186;28;2002;-55
2022/01/11 22:23:12;;;;;;;;;;;;;;;20.89;32.25;97181.25;10439822;28;1807;-58
2022/01/11 22:28:12;;;;;;;;;;;;;;;20.94;32.93;97181.31;10441673;28;1773;-58
2022/01/11 22:33:13;;;;;;;;;;;;;;;20.96;33.65;97188.97;10438361;28;2299;-60
2022/01/11 22:38:14;;;;;;;;;;;;;;;20.93;33.75;97186.84;10442257;28;1910;-58
2022/01/11 22:43:14;;;;;;;;;;;;;;;20.92;33.76;97172.06;10442915;28;1992;-57
2022/01/11 22:48:15;;;;;;;;;;;;;;;20.91;33.86;97162.56;10445317;28;1886;-56
2022/01/11 22:53:16;;;;;;;;;;;;;;;20.92;33.84;97164.94;10445970;28;1784;-55
2022/01/11 22:58:16;;;;;;;;;;;;;;;20.92;33.77;97164.94;10439872;28;1898;-56
2022/01/11 23:03:17;;;;;;;;;;;;;;;20.96;33.60;97165.25;10437147;28;1923;-55
2022/01/11 23:08:18;;;;;;;;;;;;;;;20.94;33.42;97156.78;10436037;28;1923;-55
2022/01/11 23:18:18;;;;;;;;;;;;;;;20.89;33.64;97160.19;10440950;28;1975;-55
2022/01/11 23:23:19;;;;;;;;;;;;;;;20.90;33.44;97160.94;10435336;28;1746;-56
2022/01/11 23:28:19;;;;;;;;;;;;;;;20.88;33.61;97174.38;10433589;28;1874;-57
2022/01/11 23:33:20;;;;;;;;;;;;;;;20.89;33.30;97173.34;10439694;23;1788;-70
2022/01/11 23:38:27;;;;;;;;;;;;;;;20.89;33.29;97168.09;10438903;28;1963;-70
2022/01/11 23:48:47;;;;;;;;;;;;;;;20.87;32.88;97178.06;10434691;28;2043;-70
2022/01/11 23:53:47;;;;;;;;;;;;;;;20.84;33.05;97180.38;10457241;28;1850;-70
2022/01/11 23:58:47;;;;;;;;;;;;;;;20.84;33.13;97178.53;10436138;28;1979;-70
